sensor_id;sensor_type;location;lat;lon;timestamp;pressure;altitude;pressure_sealevel;temperature;humidity
29163;BME280;20331;53.144;8.208;2022-07-04T00:06:30;101654.13;;;17.89;77.55
29163;BME280;20331;53.144;8.208;2022-07-04T00:16:52;101654.88;;;17.80;77.33
29163;BME280;20331;53.144;8.208;2022-07-04T00:27:13;101650.25;;;17.61;78.22
29163;BME280;20331;53.144;8.208;2022-07-04T00:37:35;101643.53;;;17.57;78.41
29163;BME280;20331;53.144;8.208;2022-07-04T00:47:56;101654.69;;;17.50;77.14
29163;BME280;20331;53.144;8.208;2022-07-04T00:58:18;101667.19;;;17.37;77.86
29163;BME280;20331;53.144;8.208;2022-07-04T01:08:41;101674.59;;;17.32;78.76
29163;BME280;20331;53.144;8.208;2022-07-04T01:19:02;101656.50;;;17.28;79.13
29163;BME280;20331;53.144;8.208;2022-07-04T01:29:24;101663.09;;;17.22;77.93
29163;BME280;20331;53.144;8.208;2022-07-04T01:39:45;101657.56;;;17.03;88.70
29163;BME280;20331;53.144;8.208;2022-07-04T01:50:07;101664.28;;;16.85;79.88
29163;BME280;20331;53.144;8.208;2022-07-04T02:00:29;101671.31;;;16.74;79.34
29163;BME280;20331;53.144;8.208;2022-07-04T02:11:09;101665.59;;;16.80;78.81
29163;BME280;20331;53.144;8.208;2022-07-04T02:21:31;101670.00;;;16.68;87.65
29163;BME280;20331;53.144;8.208;2022-07-04T02:31:52;101671.66;;;16.58;78.85
29163;BME280;20331;53.144;8.208;2022-07-04T02:42:14;101666.63;;;16.55;88.90
29163;BME280;20331;53.144;8.208;2022-07-04T02:52:35;101646.25;;;16.46;79.76
29163;BME280;20331;53.144;8.208;2022-07-04T03:02:57;101658.72;;;16.44;78.85
29163;BME280;20331;53.144;8.208;2022-07-04T03:13:18;101660.34;;;16.45;87.84
29163;BME280;20331;53.144;8.208;2022-07-04T03:23:40;101656.56;;;16.26;79.61
29163;BME280;20331;53.144;8.208;2022-07-04T03:34:02;101661.97;;;16.25;89.33
29163;BME280;20331;53.144;8.208;2022-07-04T03:44:23;101673.50;;;16.11;80.80
29163;BME280;20331;53.144;8.208;2022-07-04T03:54:44;101683.41;;;16.08;81.16
29163;BME280;20331;53.144;8.208;2022-07-04T04:05:07;101694.53;;;16.11;80.64
29163;BME280;20331;53.144;8.208;2022-07-04T04:15:47;101702.38;;;16.24;81.04
29163;BME280;20331;53.144;8.208;2022-07-04T04:26:08;101707.63;;;16.24;80.72
29163;BME280;20331;53.144;8.208;2022-07-04T04:36:30;101710.13;;;16.38;88.24
29163;BME280;20331;53.144;8.208;2022-07-04T04:46:51;101735.63;;;16.37;81.29
29163;BME280;20331;53.144;8.208;2022-07-04T04:57:13;101731.34;;;16.47;81.89
29163;BME280;20331;53.144;8.208;2022-07-04T05:07:34;101732.63;;;16.76;78.41
29163;BME280;20331;53.144;8.208;2022-07-04T05:17:56;101734.09;;;17.02;85.24
29163;BME280;20331;53.144;8.208;2022-07-04T05:28:17;101743.13;;;17.32;76.67
29163;BME280;20331;53.144;8.208;2022-07-04T05:38:39;101736.66;;;17.47;75.06
29163;BME280;20331;53.144;8.208;2022-07-04T05:49:00;101723.25;;;17.61;74.37
29163;BME280;20331;53.144;8.208;2022-07-04T05:59:22;101728.50;;;17.83;73.05
29163;BME280;20331;53.144;8.208;2022-07-04T06:09:44;101724.38;;;18.01;72.94
29163;BME280;20331;53.144;8.208;2022-07-04T06:20:07;101719.75;;;18.25;74.36
29163;BME280;20331;53.144;8.208;2022-07-04T06:30:29;101721.59;;;18.44;72.61
29163;BME280;20331;53.144;8.208;2022-07-04T06:40:53;101731.22;;;18.66;72.09
29163;BME280;20331;53.144;8.208;2022-07-04T06:51:15;101741.53;;;18.89;71.05
29163;BME280;20331;53.144;8.208;2022-07-04T07:01:37;101753.16;;;19.18;69.57
29163;BME280;20331;53.144;8.208;2022-07-04T07:11:58;101741.88;;;19.46;68.46
29163;BME280;20331;53.144;8.208;2022-07-04T07:22:20;101725.38;;;19.63;67.73
29163;BME280;20331;53.144;8.208;2022-07-04T07:32:42;101732.25;;;19.84;66.32
29163;BME280;20331;53.144;8.208;2022-07-04T07:43:03;101725.22;;;20.23;65.60
29163;BME280;20331;53.144;8.208;2022-07-04T07:53:25;101720.50;;;20.36;65.23
29163;BME280;20331;53.144;8.208;2022-07-04T08:03:47;101720.47;;;20.54;64.45
29163;BME280;20331;53.144;8.208;2022-07-04T08:14:33;101720.19;;;20.76;63.91
29163;BME280;20331;53.144;8.208;2022-07-04T08:24:55;101714.19;;;20.93;63.12
29163;BME280;20331;53.144;8.208;2022-07-04T08:35:17;101716.19;;;21.18;62.96
29163;BME280;20331;53.144;8.208;2022-07-04T08:45:39;101704.91;;;21.43;61.88
29163;BME280;20331;53.144;8.208;2022-07-04T08:56:22;101721.06;;;21.59;61.64
29163;BME280;20331;53.144;8.208;2022-07-04T09:07:03;101721.94;;;21.77;61.35
29163;BME280;20331;53.144;8.208;2022-07-04T09:17:25;101714.97;;;21.76;61.49
29163;BME280;20331;53.144;8.208;2022-07-04T09:27:48;101718.50;;;21.94;61.47
29163;BME280;20331;53.144;8.208;2022-07-04T09:38:10;101709.91;;;22.00;59.99
29163;BME280;20331;53.144;8.208;2022-07-04T09:48:48;101717.25;;;22.33;58.94
29163;BME280;20331;53.144;8.208;2022-07-04T09:59:10;101701.88;;;22.61;57.51
29163;BME280;20331;53.144;8.208;2022-07-04T10:09:32;101703.13;;;23.00;56.93
29163;BME280;20331;53.144;8.208;2022-07-04T10:19:54;101685.53;;;22.99;57.42
29163;BME280;20331;53.144;8.208;2022-07-04T10:30:15;101682.44;;;22.86;57.63
29163;BME280;20331;53.144;8.208;2022-07-04T10:40:41;101685.03;;;23.29;56.23
29163;BME280;20331;53.144;8.208;2022-07-04T10:51:06;101677.84;;;23.63;54.98
29163;BME280;20331;53.144;8.208;2022-07-04T11:01:28;101685.53;;;24.23;54.79
29163;BME280;20331;53.144;8.208;2022-07-04T11:22:11;101678.19;;;24.81;51.22
29163;BME280;20331;53.144;8.208;2022-07-04T11:32:33;101662.03;;;24.50;53.97
29163;BME280;20331;53.144;8.208;2022-07-04T11:43:05;101653.03;;;24.67;55.36
29163;BME280;20331;53.144;8.208;2022-07-04T11:53:45;101653.69;;;24.37;53.38
29163;BME280;20331;53.144;8.208;2022-07-04T12:04:13;101654.56;;;23.57;56.22
29163;BME280;20331;53.144;8.208;2022-07-04T12:14:36;101651.19;;;23.47;57.37
29163;BME280;20331;53.144;8.208;2022-07-04T12:24:58;101632.94;;;23.76;57.16
29163;BME280;20331;53.144;8.208;2022-07-04T12:46:00;101618.38;;;24.12;54.29
29163;BME280;20331;53.144;8.208;2022-07-04T13:06:50;101606.38;;;24.24;54.34
29163;BME280;20331;53.144;8.208;2022-07-04T13:17:12;101612.34;;;24.33;54.00
29163;BME280;20331;53.144;8.208;2022-07-04T13:27:33;101611.69;;;24.32;54.23
29163;BME280;20331;53.144;8.208;2022-07-04T13:37:55;101621.53;;;24.31;52.89
29163;BME280;20331;53.144;8.208;2022-07-04T13:48:21;101620.03;;;24.29;52.84
29163;BME280;20331;53.144;8.208;2022-07-04T13:58:43;101619.69;;;24.32;51.40
29163;BME280;20331;53.144;8.208;2022-07-04T14:09:05;101615.84;;;24.42;50.54
29163;BME280;20331;53.144;8.208;2022-07-04T14:19:26;101624.00;;;24.72;50.33
29163;BME280;20331;53.144;8.208;2022-07-04T14:29:48;101626.88;;;24.47;51.70
29163;BME280;20331;53.144;8.208;2022-07-04T14:40:10;101629.53;;;24.31;50.58
29163;BME280;20331;53.144;8.208;2022-07-04T14:50:32;101625.69;;;24.33;51.23
29163;BME280;20331;53.144;8.208;2022-07-04T15:00:54;101627.03;;;24.45;51.68
29163;BME280;20331;53.144;8.208;2022-07-04T15:11:16;101626.03;;;24.54;52.72
29163;BME280;20331;53.144;8.208;2022-07-04T15:21:41;101628.03;;;24.52;48.15
29163;BME280;20331;53.144;8.208;2022-07-04T15:32:26;101630.03;;;24.34;52.16
29163;BME280;20331;53.144;8.208;2022-07-04T15:42:47;101639.03;;;24.26;49.89
29163;BME280;20331;53.144;8.208;2022-07-04T15:53:09;101635.53;;;24.57;50.30
29163;BME280;20331;53.144;8.208;2022-07-04T16:03:30;101633.72;;;24.49;49.82
29163;BME280;20331;53.144;8.208;2022-07-04T16:13:52;101636.28;;;24.89;50.06
29163;BME280;20331;53.144;8.208;2022-07-04T16:24:15;101634.81;;;25.33;48.48
29163;BME280;20331;53.144;8.208;2022-07-04T16:34:36;101639.13;;;25.42;48.99
29163;BME280;20331;53.144;8.208;2022-07-04T16:44:58;101638.06;;;25.59;49.32
29163;BME280;20331;53.144;8.208;2022-07-04T16:55:19;101654.16;;;25.73;48.46
29163;BME280;20331;53.144;8.208;2022-07-04T17:05:41;101654.34;;;25.64;52.69
29163;BME280;20331;53.144;8.208;2022-07-04T17:16:03;101659.09;;;25.54;51.63
29163;BME280;20331;53.144;8.208;2022-07-04T17:26:25;101660.50;;;25.42;53.51
29163;BME280;20331;53.144;8.208;2022-07-04T17:37:06;101665.03;;;24.71;54.26
29163;BME280;20331;53.144;8.208;2022-07-04T17:47:34;101663.34;;;24.31;55.68
29163;BME280;20331;53.144;8.208;2022-07-04T17:57:55;101667.63;;;23.84;56.13
29163;BME280;20331;53.144;8.208;2022-07-04T18:08:17;101669.50;;;23.50;55.47
29163;BME280;20331;53.144;8.208;2022-07-04T18:18:38;101681.97;;;23.16;55.76
29163;BME280;20331;53.144;8.208;2022-07-04T18:29:00;101697.94;;;22.91;57.36
29163;BME280;20331;53.144;8.208;2022-07-04T18:39:21;101700.38;;;22.59;57.98
29163;BME280;20331;53.144;8.208;2022-07-04T18:49:44;101701.34;;;22.23;58.25
29163;BME280;20331;53.144;8.208;2022-07-04T19:00:05;101714.16;;;21.93;58.97
29163;BME280;20331;53.144;8.208;2022-07-04T19:10:28;101718.03;;;21.81;59.09
29163;BME280;20331;53.144;8.208;2022-07-04T19:20:49;101722.31;;;21.55;59.82
29163;BME280;20331;53.144;8.208;2022-07-04T19:31:11;101726.94;;;21.53;59.80
29163;BME280;20331;53.144;8.208;2022-07-04T19:41:32;101736.75;;;21.43;60.06
29163;BME280;20331;53.144;8.208;2022-07-04T19:51:54;101750.09;;;21.24;60.43
29163;BME280;20331;53.144;8.208;2022-07-04T20:02:35;101760.75;;;21.15;60.50
29163;BME280;20331;53.144;8.208;2022-07-04T20:12:57;101766.50;;;21.01;60.81
29163;BME280;20331;53.144;8.208;2022-07-04T20:23:18;101778.50;;;20.95;60.90
29163;BME280;20331;53.144;8.208;2022-07-04T20:33:39;101782.28;;;20.83;60.85
29163;BME280;20331;53.144;8.208;2022-07-04T20:44:01;101774.72;;;20.69;61.15
29163;BME280;20331;53.144;8.208;2022-07-04T20:54:23;101790.22;;;20.55;61.32
29163;BME280;20331;53.144;8.208;2022-07-04T21:04:44;101795.91;;;20.32;62.66
29163;BME280;20331;53.144;8.208;2022-07-04T21:15:26;101794.88;;;20.14;63.18
29163;BME280;20331;53.144;8.208;2022-07-04T21:25:49;101797.22;;;19.98;63.54
29163;BME280;20331;53.144;8.208;2022-07-04T21:36:12;101800.91;;;19.86;64.02
29163;BME280;20331;53.144;8.208;2022-07-04T21:46:34;101802.84;;;19.84;63.61
29163;BME280;20331;53.144;8.208;2022-07-04T21:56:55;101805.88;;;19.70;63.52
29163;BME280;20331;53.144;8.208;2022-07-04T22:07:17;101801.34;;;19.51;63.93
29163;BME280;20331;53.144;8.208;2022-07-04T22:17:38;101810.28;;;19.30;64.03
29163;BME280;20331;53.144;8.208;2022-07-04T22:28:00;101815.47;;;19.00;64.37
29163;BME280;20331;53.144;8.208;2022-07-04T22:38:21;101817.72;;;18.84;64.59
29163;BME280;20331;53.144;8.208;2022-07-04T22:48:43;101816.81;;;18.63;64.76
29163;BME280;20331;53.144;8.208;2022-07-04T22:59:05;101820.31;;;18.64;64.09
29163;BME280;20331;53.144;8.208;2022-07-04T23:09:27;101821.94;;;18.44;64.96
29163;BME280;20331;53.144;8.208;2022-07-04T23:19:48;101832.75;;;18.41;64.85
29163;BME280;20331;53.144;8.208;2022-07-04T23:30:10;101830.63;;;18.25;65.35
29163;BME280;20331;53.144;8.208;2022-07-04T23:40:31;101829.44;;;18.18;65.61
29163;BME280;20331;53.144;8.208;2022-07-04T23:50:53;101823.47;;;17.83;66.59
